createdAt,value
2023-04-16T00:02:14.581Z,10.12
2023-04-16T00:04:42.827Z,10.01
2023-04-16T00:07:10.858Z,9.61
2023-04-16T00:09:41.605Z,9.60
2023-04-16T00:12:11.188Z,10.27
2023-04-16T00:14:38.881Z,10.67
2023-04-16T00:17:13.617Z,10.64
2023-04-16T00:19:42.719Z,9.79
2023-04-16T00:22:10.757Z,9.17
2023-04-16T00:24:38.486Z,9.29
2023-04-16T00:27:06.451Z,9.11
2023-04-16T00:29:34.294Z,9.23
2023-04-16T00:32:01.995Z,9.70
2023-04-16T00:34:31.585Z,10.33
2023-04-16T00:37:03.991Z,10.13
2023-04-16T00:39:33.874Z,10.34
2023-04-16T00:42:01.543Z,10.86
2023-04-16T00:44:30.985Z,11.06
2023-04-16T00:46:58.916Z,11.00
2023-04-16T00:49:27.357Z,9.77
2023-04-16T00:51:56.536Z,9.39
2023-04-16T00:54:25.965Z,10.05
2023-04-16T00:56:53.724Z,10.40
2023-04-16T00:59:23.839Z,10.72
2023-04-16T01:01:52.447Z,10.85
2023-04-16T01:04:20.491Z,10.97
2023-04-16T01:06:48.147Z,10.87
2023-04-16T01:09:17.071Z,10.93
2023-04-16T01:11:44.626Z,9.79
2023-04-16T01:14:12.426Z,8.37
2023-04-16T01:16:39.985Z,7.92
2023-04-16T01:19:07.881Z,7.96
2023-04-16T01:21:37.102Z,7.98
2023-04-16T01:24:05.356Z,8.07
2023-04-16T01:26:33.091Z,8.12
2023-04-16T01:29:00.814Z,8.25
2023-04-16T01:31:28.715Z,8.26
2023-04-16T01:33:56.844Z,8.22
2023-04-16T01:36:24.509Z,8.19
2023-04-16T01:38:53.480Z,8.34
2023-04-16T01:41:21.029Z,8.85
2023-04-16T01:43:48.637Z,9.34
2023-04-16T01:46:20.614Z,9.90
2023-04-16T01:48:48.383Z,10.27
2023-04-16T01:51:15.941Z,10.49
2023-04-16T01:53:43.460Z,10.77
2023-04-16T01:56:12.488Z,10.69
2023-04-16T01:58:40.072Z,10.60
2023-04-16T02:01:07.713Z,10.36
2023-04-16T02:03:36.110Z,9.94
2023-04-16T02:06:04.464Z,9.94
2023-04-16T02:08:32.463Z,9.60
2023-04-16T02:11:00.997Z,10.08
2023-04-16T02:13:30.007Z,10.31
2023-04-16T02:15:58.934Z,10.48
2023-04-16T02:18:26.747Z,10.02
2023-04-16T02:20:54.318Z,10.25
2023-04-16T02:23:21.874Z,10.26
2023-04-16T02:25:49.920Z,9.74
2023-04-16T02:28:17.498Z,9.36
2023-04-16T02:30:46.675Z,10.05
2023-04-16T02:33:14.662Z,10.23
2023-04-16T02:35:42.217Z,10.51
2023-04-16T02:38:09.778Z,10.59
2023-04-16T02:40:37.345Z,10.70
2023-04-16T02:43:05.331Z,10.74
2023-04-16T02:45:34.988Z,10.73
2023-04-16T02:48:05.794Z,10.86
2023-04-16T02:50:34.737Z,10.47
2023-04-16T02:53:02.514Z,10.30
2023-04-16T02:55:30.079Z,9.36
2023-04-16T02:57:57.678Z,8.81
2023-04-16T03:00:25.245Z,9.24
2023-04-16T03:02:52.932Z,8.75
2023-04-16T03:05:21.957Z,9.66
2023-04-16T03:07:49.561Z,9.84
2023-04-16T03:10:17.450Z,10.39
2023-04-16T03:12:45.069Z,10.36
2023-04-16T03:15:14.970Z,10.50
2023-04-16T03:17:42.558Z,10.19
2023-04-16T03:20:10.586Z,10.34
2023-04-16T03:22:42.265Z,10.67
2023-04-16T03:25:09.890Z,10.85
2023-04-16T03:27:37.994Z,10.34
2023-04-16T03:30:06.813Z,9.97
2023-04-16T03:32:35.374Z,10.15
2023-04-16T03:35:03.242Z,9.97
2023-04-16T03:37:33.131Z,10.11
2023-04-16T03:40:02.204Z,9.96
2023-04-16T03:42:29.800Z,10.10
2023-04-16T03:44:57.359Z,10.17
2023-04-16T03:47:24.958Z,10.61
2023-04-16T03:49:52.876Z,10.66
2023-04-16T03:52:20.446Z,10.42
2023-04-16T03:54:48.021Z,10.22
2023-04-16T03:57:17.286Z,10.66
2023-04-16T03:59:46.018Z,10.37
2023-04-16T04:02:13.817Z,10.56
2023-04-16T04:04:41.802Z,10.28
2023-04-16T04:07:09.389Z,10.08
2023-04-16T04:09:36.976Z,9.71
2023-04-16T04:12:04.501Z,8.91
2023-04-16T04:14:33.461Z,8.57
2023-04-16T04:17:01.005Z,8.47
2023-04-16T04:19:28.565Z,9.33
2023-04-16T04:21:56.253Z,9.54
2023-04-16T04:24:23.891Z,10.16
2023-04-16T04:26:51.505Z,10.05
2023-04-16T04:29:20.396Z,9.76
2023-04-16T04:31:51.624Z,9.31
2023-04-16T04:34:20.707Z,10.09
2023-04-16T04:36:48.253Z,10.01
2023-04-16T04:39:15.816Z,10.05
2023-04-16T04:41:43.481Z,9.95
2023-04-16T04:44:11.021Z,9.71
2023-04-16T04:46:39.341Z,9.89
2023-04-16T04:49:08.597Z,9.76
2023-04-16T04:51:36.416Z,9.03
2023-04-16T04:54:04.093Z,9.21
2023-04-16T04:56:31.787Z,8.91
2023-04-16T04:58:59.318Z,8.93
2023-04-16T05:01:26.862Z,8.61
2023-04-16T05:03:54.582Z,8.85
2023-04-16T05:06:23.537Z,9.06
2023-04-16T05:08:51.424Z,8.64
2023-04-16T05:11:19.343Z,8.51
2023-04-16T05:13:47.993Z,9.06
2023-04-16T05:16:15.655Z,9.51
2023-04-16T05:18:43.489Z,9.25
2023-04-16T05:21:11.106Z,8.87
2023-04-16T05:23:40.022Z,8.67
2023-04-16T05:26:07.596Z,9.32
2023-04-16T05:28:38.141Z,9.68
2023-04-16T05:31:05.797Z,10.16
2023-04-16T05:33:33.457Z,10.34
2023-04-16T05:36:01.051Z,10.20
2023-04-16T05:38:28.619Z,10.14
2023-04-16T05:40:58.474Z,10.13
2023-04-16T05:43:26.036Z,9.77
2023-04-16T05:45:53.859Z,10.09
2023-04-16T05:48:21.932Z,10.20
2023-04-16T05:50:49.929Z,10.46
2023-04-16T05:53:17.523Z,10.31
2023-04-16T05:55:45.104Z,10.64
2023-04-16T05:58:14.083Z,9.91
2023-04-16T06:00:41.949Z,9.98
2023-04-16T06:03:09.652Z,10.32
2023-04-16T06:05:37.421Z,10.40
2023-04-16T06:08:05.006Z,10.47
2023-04-16T06:10:32.678Z,10.21
2023-04-16T06:13:00.245Z,9.96
2023-04-16T06:15:29.489Z,10.69
2023-04-16T06:18:01.033Z,9.94
2023-04-16T06:20:28.856Z,9.98
2023-04-16T06:22:56.865Z,9.78
2023-04-16T06:25:24.550Z,9.86
2023-04-16T06:27:52.370Z,9.94
2023-04-16T06:30:20.018Z,9.77
2023-04-16T06:32:50.077Z,9.92
2023-04-16T06:35:17.792Z,9.52
2023-04-16T06:37:45.428Z,9.69
2023-04-16T06:40:13.149Z,9.94
2023-04-16T06:42:45.327Z,9.86
2023-04-16T06:45:13.432Z,9.72
2023-04-16T06:47:42.204Z,9.64
2023-04-16T06:50:11.667Z,9.69
2023-04-16T06:52:39.797Z,9.60
2023-04-16T06:55:08.153Z,9.58
2023-04-16T06:57:37.487Z,9.72
2023-04-16T07:00:06.823Z,9.94
2023-04-16T07:02:35.067Z,10.17
2023-04-16T07:05:04.504Z,10.45
2023-04-16T07:07:33.982Z,9.96
2023-04-16T07:10:01.974Z,9.75
2023-04-16T07:12:29.740Z,9.77
2023-04-16T07:14:57.408Z,9.78
2023-04-16T07:17:25.095Z,9.87
2023-04-16T07:19:53.308Z,9.91
2023-04-16T07:22:22.333Z,10.12
2023-04-16T07:24:51.388Z,10.03
2023-04-16T07:27:19.196Z,10.10
2023-04-16T07:29:46.982Z,10.11
2023-04-16T07:32:15.623Z,9.85
2023-04-16T07:34:43.416Z,9.95
2023-04-16T07:37:11.237Z,9.60
2023-04-16T07:39:39.832Z,9.52
2023-04-16T07:42:08.845Z,9.85
2023-04-16T07:44:37.810Z,9.65
2023-04-16T07:47:05.879Z,9.71
2023-04-16T07:49:33.587Z,10.04
2023-04-16T07:52:01.744Z,10.39
2023-04-16T07:54:29.856Z,10.34
2023-04-16T07:56:58.879Z,9.95
2023-04-16T07:59:28.666Z,10.00
2023-04-16T08:01:57.959Z,10.07
2023-04-16T08:04:26.427Z,10.13
2023-04-16T08:06:55.506Z,10.31
2023-04-16T08:09:26.804Z,10.48
2023-04-16T08:11:54.494Z,10.36
2023-04-16T08:14:22.156Z,10.72
2023-04-16T08:16:51.107Z,10.74
2023-04-16T08:19:18.710Z,10.62
2023-04-16T08:21:47.207Z,10.71
2023-04-16T08:24:14.852Z,10.51
2023-04-16T08:26:42.678Z,10.74
2023-04-16T08:29:10.648Z,11.13
2023-04-16T08:31:38.794Z,10.97
2023-04-16T08:34:07.763Z,11.08
2023-04-16T08:36:36.346Z,10.94
2023-04-16T08:39:04.128Z,11.35
2023-04-16T08:41:36.639Z,11.14
2023-04-16T08:44:08.779Z,10.80
2023-04-16T08:46:40.335Z,10.76
2023-04-16T08:49:17.482Z,9.92
2023-04-16T08:51:51.482Z,9.43
2023-04-16T08:54:31.230Z,9.18
2023-04-16T08:57:00.163Z,9.22
2023-04-16T08:59:29.566Z,10.06
2023-04-16T09:01:58.895Z,9.92
2023-04-16T09:04:29.280Z,9.20
2023-04-16T09:07:02.227Z,9.41
2023-04-16T09:09:34.659Z,10.32
2023-04-16T09:12:02.950Z,10.67
2023-04-16T09:14:31.559Z,10.45
2023-04-16T09:17:02.663Z,9.95
2023-04-16T09:19:31.864Z,10.63
2023-04-16T09:21:59.546Z,10.36
2023-04-16T09:24:29.100Z,9.80
2023-04-16T09:26:57.432Z,9.80
2023-04-16T09:29:34.633Z,9.92
2023-04-16T09:32:05.129Z,9.41
2023-04-16T09:34:36.186Z,10.12
2023-04-16T09:37:17.908Z,9.82
2023-04-16T09:39:53.598Z,10.83
2023-04-16T09:42:25.264Z,11.45
2023-04-16T09:44:53.578Z,10.56
2023-04-16T09:47:22.686Z,10.66
2023-04-16T09:49:52.113Z,10.76
2023-04-16T09:52:22.932Z,10.59
2023-04-16T09:54:52.269Z,10.02
2023-04-16T09:57:21.324Z,10.91
2023-04-16T09:59:53.346Z,11.08
2023-04-16T10:02:29.555Z,11.12
2023-04-16T10:05:06.857Z,11.15
2023-04-16T10:07:37.293Z,11.28
2023-04-16T10:10:22.147Z,11.43
2023-04-16T10:12:55.212Z,11.10
2023-04-16T10:15:23.368Z,10.43
2023-04-16T10:17:51.604Z,10.60
2023-04-16T10:20:22.662Z,10.44
2023-04-16T10:22:51.149Z,11.52
2023-04-16T10:25:21.441Z,11.43
2023-04-16T10:27:51.062Z,11.50
2023-04-16T10:30:19.434Z,11.17
2023-04-16T10:32:48.648Z,10.96
2023-04-16T10:35:21.055Z,10.95
2023-04-16T10:37:48.677Z,10.88
2023-04-16T10:40:26.840Z,10.69
2023-04-16T10:42:58.692Z,10.71
2023-04-16T10:45:30.564Z,11.12
2023-04-16T10:47:58.727Z,11.18
2023-04-16T10:50:38.437Z,11.08
2023-04-16T10:53:28.809Z,11.28
2023-04-16T10:56:12.116Z,11.41
2023-04-16T10:58:39.903Z,11.49
2023-04-16T11:01:11.956Z,11.83
2023-04-16T11:03:44.775Z,11.75
2023-04-16T11:06:16.581Z,12.03
2023-04-16T11:08:54.603Z,12.39
2023-04-16T11:11:23.314Z,12.09
2023-04-16T11:13:57.220Z,11.75
2023-04-16T11:16:25.934Z,11.72
2023-04-16T11:18:55.066Z,11.24
2023-04-16T11:21:27.999Z,11.59
2023-04-16T11:23:59.112Z,10.45
2023-04-16T11:26:41.107Z,9.91
2023-04-16T11:29:24.474Z,9.60
2023-04-16T11:31:55.418Z,9.32
2023-04-16T11:34:23.849Z,9.36
2023-04-16T11:36:54.587Z,9.16
2023-04-16T11:39:23.037Z,9.18
2023-04-16T11:41:52.365Z,9.25
2023-04-16T11:44:21.463Z,9.24
2023-04-16T11:46:50.603Z,9.38
2023-04-16T11:49:28.217Z,9.69
2023-04-16T11:52:00.661Z,9.95
2023-04-16T11:54:31.189Z,10.85
2023-04-16T11:56:59.618Z,10.42
2023-04-16T11:59:29.476Z,10.34
2023-04-16T12:01:58.736Z,9.82
2023-04-16T12:04:30.868Z,9.50
2023-04-16T12:07:09.880Z,9.31
2023-04-16T12:09:41.589Z,9.23
2023-04-16T12:12:27.940Z,9.31
2023-04-16T12:14:58.898Z,9.91
2023-04-16T12:17:29.952Z,9.63
2023-04-16T12:19:59.355Z,9.30
2023-04-16T12:22:45.725Z,9.22
2023-04-16T12:25:16.818Z,9.38
2023-04-16T12:27:47.092Z,9.67
2023-04-16T12:30:16.559Z,10.66
2023-04-16T12:32:50.265Z,10.44
2023-04-16T12:35:33.093Z,10.44
2023-04-16T12:38:02.652Z,9.89
2023-04-16T12:40:31.600Z,9.54
2023-04-16T12:42:59.288Z,10.38
2023-04-16T12:45:27.005Z,10.56
2023-04-16T12:47:54.705Z,10.67
2023-04-16T12:50:25.399Z,10.58
2023-04-16T12:52:52.996Z,10.68
2023-04-16T12:55:22.635Z,9.85
2023-04-16T12:57:50.496Z,9.54
2023-04-16T13:00:19.637Z,10.32
2023-04-16T13:02:48.432Z,11.16
2023-04-16T13:05:19.553Z,10.84
2023-04-16T13:07:47.981Z,9.95
2023-04-16T13:10:20.384Z,9.91
2023-04-16T13:12:53.325Z,9.78
2023-04-16T13:15:22.817Z,9.76
2023-04-16T13:17:56.140Z,9.74
2023-04-16T13:20:24.581Z,10.63
2023-04-16T13:22:53.540Z,10.22
2023-04-16T13:25:22.936Z,9.80
2023-04-16T13:27:53.773Z,9.54
2023-04-16T13:30:21.952Z,9.28
2023-04-16T13:32:51.519Z,9.44
2023-04-16T13:35:19.402Z,9.45
2023-04-16T13:37:47.675Z,9.58
2023-04-16T13:40:15.418Z,9.38
2023-04-16T13:42:43.158Z,9.93
2023-04-16T13:45:12.402Z,10.05
2023-04-16T13:47:41.709Z,10.04
2023-04-16T13:50:11.573Z,9.66
2023-04-16T13:52:39.193Z,9.73
2023-04-16T13:55:07.456Z,9.89
2023-04-16T13:57:35.173Z,10.39
2023-04-16T14:00:03.933Z,10.63
2023-04-16T14:02:33.309Z,9.93
2023-04-16T14:05:01.165Z,9.64
2023-04-16T14:07:28.748Z,10.22
2023-04-16T14:09:56.348Z,10.13
2023-04-16T14:12:26.218Z,9.99
2023-04-16T14:14:53.981Z,9.87
2023-04-16T14:17:22.090Z,9.54
2023-04-16T14:19:51.056Z,9.33
2023-04-16T14:22:18.625Z,9.53
2023-04-16T14:24:46.315Z,9.70
2023-04-16T14:27:14.225Z,9.72
2023-04-16T14:29:43.387Z,9.70
2023-04-16T14:32:11.472Z,9.67
2023-04-16T14:34:39.676Z,9.86
2023-04-16T14:37:09.139Z,9.94
2023-04-16T14:39:36.785Z,10.13
2023-04-16T14:42:04.814Z,10.30
2023-04-16T14:44:32.652Z,10.48
2023-04-16T14:47:00.384Z,10.61
2023-04-16T14:49:28.084Z,10.60
2023-04-16T14:51:58.166Z,10.71
2023-04-16T14:54:27.376Z,10.71
2023-04-16T14:56:54.942Z,10.72
2023-04-16T14:59:22.541Z,10.70
2023-04-16T15:01:50.427Z,11.07
2023-04-16T15:04:18.479Z,10.74
2023-04-16T15:06:46.662Z,10.85
2023-04-16T15:09:17.113Z,10.87
2023-04-16T15:11:51.296Z,10.87
2023-04-16T15:14:19.048Z,11.09
2023-04-16T15:16:47.280Z,11.71
2023-04-16T15:19:15.153Z,11.68
2023-04-16T15:21:43.800Z,11.12
2023-04-16T15:24:11.961Z,11.33
2023-04-16T15:26:39.667Z,11.35
2023-04-16T15:29:08.752Z,11.49
2023-04-16T15:31:38.200Z,11.27
2023-04-16T15:34:05.955Z,11.54
2023-04-16T15:36:33.770Z,11.11
2023-04-16T15:39:01.686Z,11.14
2023-04-16T15:41:31.697Z,11.58
2023-04-16T15:43:59.882Z,11.76
2023-04-16T15:46:29.906Z,11.66
2023-04-16T15:48:57.721Z,11.21
2023-04-16T15:51:25.641Z,10.94
2023-04-16T15:53:53.299Z,11.18
2023-04-16T15:56:21.346Z,11.49
2023-04-16T15:58:52.456Z,11.92
2023-04-16T16:01:20.594Z,12.48
2023-04-16T16:03:52.577Z,12.51
2023-04-16T16:06:23.475Z,12.44
2023-04-16T16:08:53.094Z,11.64
2023-04-16T16:11:21.475Z,11.27
2023-04-16T16:13:49.647Z,11.09
2023-04-16T16:16:17.554Z,10.65
2023-04-16T16:18:45.124Z,11.02
2023-04-16T16:21:14.052Z,11.33
2023-04-16T16:23:42.140Z,11.28
2023-04-16T16:26:13.635Z,11.31
2023-04-16T16:28:42.293Z,11.75
2023-04-16T16:31:12.954Z,11.50
2023-04-16T16:33:40.985Z,11.84
2023-04-16T16:36:10.289Z,11.49
2023-04-16T16:38:42.028Z,11.71
2023-04-16T16:41:11.075Z,12.02
2023-04-16T16:43:40.033Z,11.49
2023-04-16T16:46:10.291Z,12.04
2023-04-16T16:48:38.174Z,11.90
2023-04-16T16:51:10.304Z,12.64
2023-04-16T16:53:40.990Z,12.36
2023-04-16T16:56:10.130Z,12.52
2023-04-16T16:58:38.067Z,12.65
2023-04-16T17:01:05.844Z,12.49
2023-04-16T17:03:34.131Z,12.42
2023-04-16T17:06:02.605Z,12.11
2023-04-16T17:08:30.269Z,11.83
2023-04-16T17:11:02.719Z,11.59
2023-04-16T17:13:30.649Z,11.37
2023-04-16T17:15:58.304Z,11.40
2023-04-16T17:18:25.916Z,11.41
2023-04-16T17:20:53.564Z,11.27
2023-04-16T17:23:21.186Z,11.60
2023-04-16T17:25:50.488Z,11.35
2023-04-16T17:28:21.700Z,11.54
2023-04-16T17:30:51.966Z,11.33
2023-04-16T17:33:19.706Z,11.32
2023-04-16T17:35:47.474Z,11.75
2023-04-16T17:38:15.145Z,11.12
2023-04-16T17:40:42.761Z,11.69
2023-04-16T17:43:10.294Z,11.25
2023-04-16T17:45:40.757Z,11.61
2023-04-16T17:48:08.753Z,11.51
2023-04-16T17:50:39.353Z,11.59
2023-04-16T17:53:09.782Z,11.70
2023-04-16T17:55:37.553Z,11.41
2023-04-16T17:58:05.200Z,11.61
2023-04-16T18:00:32.851Z,11.38
2023-04-16T18:03:01.875Z,11.59
2023-04-16T18:05:30.542Z,11.48
2023-04-16T18:07:58.224Z,11.95
2023-04-16T18:10:25.800Z,11.82
2023-04-16T18:12:53.369Z,11.60
2023-04-16T18:15:22.792Z,11.39
2023-04-16T18:17:51.349Z,11.31
2023-04-16T18:20:20.507Z,11.64
2023-04-16T18:22:48.424Z,10.25
2023-04-16T18:25:16.405Z,10.43
2023-04-16T18:27:44.412Z,10.96
2023-04-16T18:30:19.793Z,11.23
2023-04-16T18:33:16.497Z,11.03
2023-04-16T18:35:41.907Z,10.81
2023-04-16T18:38:09.998Z,11.59
2023-04-16T18:40:37.666Z,11.93
2023-04-16T18:43:07.652Z,11.98
2023-04-16T18:45:35.384Z,10.89
2023-04-16T18:48:03.466Z,11.39
2023-04-16T18:50:31.171Z,11.52
2023-04-16T18:53:00.060Z,11.40
2023-04-16T18:55:28.029Z,10.97
2023-04-16T18:57:56.972Z,11.00
2023-04-16T19:00:24.709Z,11.48
2023-04-16T19:02:52.401Z,12.05
2023-04-16T19:05:20.224Z,12.28
2023-04-16T19:07:47.788Z,11.73
2023-04-16T19:10:19.002Z,11.87
2023-04-16T19:12:46.552Z,12.05
2023-04-16T19:15:15.845Z,12.06
2023-04-16T19:17:43.539Z,11.39
2023-04-16T19:20:11.733Z,12.08
2023-04-16T19:22:39.369Z,11.53
2023-04-16T19:25:08.095Z,12.33
2023-04-16T19:27:37.105Z,11.62
2023-04-16T19:30:05.938Z,11.75
2023-04-16T19:32:34.230Z,11.70
2023-04-16T19:35:02.153Z,11.84
2023-04-16T19:37:30.064Z,11.82
2023-04-16T19:39:57.702Z,11.38
2023-04-16T19:42:25.757Z,11.56
2023-04-16T19:44:54.683Z,11.68
2023-04-16T19:47:23.480Z,11.41
2023-04-16T19:49:51.477Z,11.41
2023-04-16T19:52:19.052Z,11.24
2023-04-16T19:54:48.950Z,11.05
2023-04-16T19:57:16.533Z,10.67
2023-04-16T19:59:44.343Z,10.76
2023-04-16T20:02:13.726Z,11.15
2023-04-16T20:04:41.340Z,11.01
2023-04-16T20:07:08.881Z,10.63
2023-04-16T20:09:36.408Z,10.87
2023-04-16T20:12:04.328Z,10.87
2023-04-16T20:14:31.950Z,10.92
2023-04-16T20:16:59.795Z,10.99
2023-04-16T20:19:28.832Z,10.84
2023-04-16T20:21:56.435Z,11.15
2023-04-16T20:24:26.448Z,11.31
2023-04-16T20:26:55.497Z,11.42
2023-04-16T20:29:23.280Z,11.28
2023-04-16T20:31:51.312Z,11.24
2023-04-16T20:34:20.235Z,11.51
2023-04-16T20:36:50.188Z,11.35
2023-04-16T20:39:17.764Z,11.35
2023-04-16T20:41:45.401Z,11.11
2023-04-16T20:44:13.267Z,11.34
2023-04-16T20:46:40.857Z,11.39
2023-04-16T20:49:08.492Z,10.91
2023-04-16T20:51:38.451Z,10.81
2023-04-16T20:54:07.634Z,10.71
2023-04-16T20:56:35.284Z,10.88
2023-04-16T20:59:03.103Z,10.74
2023-04-16T21:01:32.054Z,10.86
2023-04-16T21:04:00.131Z,11.01
2023-04-16T21:06:27.962Z,10.65
2023-04-16T21:08:56.762Z,11.00
2023-04-16T21:11:25.644Z,11.16
2023-04-16T21:13:53.395Z,11.32
2023-04-16T21:16:21.002Z,10.87
2023-04-16T21:18:48.607Z,11.00
2023-04-16T21:21:17.216Z,10.99
2023-04-16T21:23:44.770Z,11.08
2023-04-16T21:26:12.451Z,11.28
2023-04-16T21:28:41.688Z,11.23
2023-04-16T21:31:09.377Z,11.15
2023-04-16T21:33:37.044Z,10.76
2023-04-16T21:36:04.913Z,10.83
2023-04-16T21:38:32.638Z,10.58
2023-04-16T21:41:01.266Z,10.71
2023-04-16T21:43:29.094Z,10.89
2023-04-16T21:45:58.366Z,10.79
2023-04-16T21:48:26.277Z,10.38
2023-04-16T21:50:55.144Z,10.39
2023-04-16T21:53:24.369Z,10.14
2023-04-16T21:55:51.983Z,10.55
2023-04-16T21:58:20.912Z,10.54
2023-04-16T22:00:48.914Z,10.29
2023-04-16T22:03:18.005Z,10.52
2023-04-16T22:05:45.761Z,10.51
2023-04-16T22:08:24.075Z,10.74
2023-04-16T22:10:56.436Z,10.69
2023-04-16T22:13:24.080Z,10.56
2023-04-16T22:15:53.432Z,10.48
2023-04-16T22:18:23.317Z,10.51
2023-04-16T22:20:53.038Z,10.47
2023-04-16T22:23:20.872Z,9.98
2023-04-16T22:25:48.481Z,9.78
2023-04-16T22:28:16.096Z,9.91
2023-04-16T22:30:44.380Z,10.50
2023-04-16T22:33:13.463Z,10.89
2023-04-16T22:35:42.372Z,10.34
2023-04-16T22:38:09.945Z,10.41
2023-04-16T22:40:38.639Z,10.43
2023-04-16T22:43:06.289Z,9.98
2023-04-16T22:45:34.021Z,9.95
2023-04-16T22:48:03.994Z,10.25
2023-04-16T22:50:31.856Z,10.10
2023-04-16T22:53:00.847Z,10.38
2023-04-16T22:55:28.462Z,10.13
2023-04-16T22:57:56.098Z,10.44
2023-04-16T23:00:23.777Z,10.69
2023-04-16T23:02:51.466Z,10.74
2023-04-16T23:05:19.131Z,11.03
2023-04-16T23:07:46.920Z,10.36
2023-04-16T23:10:18.781Z,9.58
2023-04-16T23:12:46.377Z,10.20
2023-04-16T23:15:14.177Z,10.37
2023-04-16T23:17:41.861Z,9.65
2023-04-16T23:20:10.449Z,10.00
2023-04-16T23:22:38.069Z,10.36
2023-04-16T23:25:06.425Z,9.96
2023-04-16T23:27:36.194Z,10.21
2023-04-16T23:30:04.572Z,10.50
2023-04-16T23:32:32.427Z,10.43
2023-04-16T23:35:00.197Z,10.48
2023-04-16T23:37:28.001Z,10.70
2023-04-16T23:39:55.770Z,10.29
2023-04-16T23:42:23.380Z,10.38
2023-04-16T23:44:54.465Z,10.29
2023-04-16T23:47:22.135Z,10.06
2023-04-16T23:49:49.917Z,10.12
2023-04-16T23:52:17.535Z,10.25
2023-04-16T23:54:45.197Z,10.40
2023-04-16T23:57:12.910Z,10.16
2023-04-16T23:59:40.855Z,10.35
